Airfield :
LOGIN :

Register | Disclaimer

   EN    FR    IT 

 










Legend :    VFR   Marginal VFR   IFR   Intensive IFR   Very Intensive IFR
Visi :
Ceiling :
>= 8 km
>= 3000ft
5 to 8 km
1000 to 3000 ft
1500m to 5 km
500 to 1000 ft
800 to 1500m
200 to 500 ft
< 800m
< 200 ft
Symbols :   Thunderstorms  Fog  Heavy snow  Heavy precipitations  Wind > 20 kt
SIGMETs :     Misc.  Thunderstorms  Icing  Turbulence  Mountain Waves  Volcanic Ashes






- Airport Elevation : 1036 ft
- IATA code : ERF


EDDE - Erfurt

CURRENT METAR :
  • 011120Z VRB05KT CAVOK 06/M07 Q1020 NOSIG

EXPIRED METARs :
  • 011050Z 25006KT 200V320 CAVOK 06/M06 Q1020 NOSIG
  • 011020Z VRB06KT CAVOK 05/M07 Q1021 NOSIG
  • 010950Z 27005KT 220V340 CAVOK 04/M07 Q1021 NOSIG
  • 010920Z 25007KT 230V290 CAVOK 04/M07 Q1022 NOSIG
  • 010850Z 26008KT 230V290 CAVOK 03/M07 Q1022 NOSIG
  • 010820Z 23006KT CAVOK 02/M07 Q1022 NOSIG

TAF TAF EDDE
Valid from the 01 at 06:00 until the 02 at 06:00 UTC


010500Z 0106/0206 21006KT CAVOK
BECMG 0108/0110 29006KT
BECMG 0115/0117 23005KT



MET'MAP, your aeronautical weather chart ! - Copyright ORBIFLY December 2007 - Disclaimer

ORBIFLY MET'MAP TEAM :

Programming & Development : Alexandra Zaïnal
Concept & original design : Baudouin d'Aumeries
Assistance for programming : Marc-Olivier Méhu
Technical & hardware support : Manuel Goepfert

Contact : metmap@orbifly.com




SOURCES & CREDITS :

   NOAA